This is the latest recevied weather packets stored in our database for station/object KE6LRO. If no packets are shown the sender has not sent any weather packets the latest 10 day(s).
| Time | Temp. | Humidity | Pressure | Rain* | Wind** | Luminosity | Snow |
|---|---|---|---|---|---|---|---|
| 1778206966 | 14.44° C | 59% | 1017.1 hPa | 0 mm | - | 16 W/m² | - |
| 1778206663 | 15.56° C | 56% | 1016.9 hPa | 0 mm | - | 18 W/m² | - |
| 1778206358 | 16.67° C | 54% | 1017.2 hPa | 0 mm | - | 20 W/m² | - |
| 1778206055 | 18.33° C | 46% | 1017.1 hPa | 0 mm | - | 22 W/m² | - |
| 1778205753 | 18.89° C | 38% | 1017.2 hPa | 0 mm | - | 24 W/m² | - |
| 1778205449 | 18.89° C | 38% | 1016.9 hPa | 0 mm | - | 27 W/m² | - |
| 1778205147 | 19.44° C | 37% | 1016.9 hPa | 0 mm | - | 29 W/m² | - |
| 1778204843 | 19.44° C | 36% | 1016.9 hPa | 0 mm | - | 32 W/m² | - |
| 1778204540 | 20° C | 34% | 1016.8 hPa | 0 mm | - | 43 W/m² | - |
| 1778204236 | 20.56° C | 34% | 1017.1 hPa | 0 mm | - | 53 W/m² | - |
| 1778203933 | 20.56° C | 33% | 1016.7 hPa | 0 mm | - | 67 W/m² | - |
| 1778203631 | 20.56° C | 33% | 1017.1 hPa | 0 mm | - | 75 W/m² | - |
| 1778203327 | 20° C | 33% | 1016.9 hPa | 0 mm | - | 82 W/m² | - |
| 1778203025 | 20.56° C | 33% | 1016.7 hPa | 0 mm | - | 89 W/m² | - |
| 1778202722 | 20° C | 33% | 1016.8 hPa | 0 mm | - | 62 W/m² | - |
| 1778202419 | 20.56° C | 32% | 1016.8 hPa | 0 mm | - | 86 W/m² | - |
| 1778202117 | 20° C | 33% | 1017.1 hPa | 0 mm | - | 143 W/m² | - |
| 1778201814 | 20° C | 35% | 1016.9 hPa | 0 mm | - | 78 W/m² | - |
| 1778201510 | 21.11° C | 33% | 1016.9 hPa | 0 mm | - | 90 W/m² | - |
| 1778201206 | 21.67° C | 32% | 1017.1 hPa | 0 mm | - | 157 W/m² | - |
| 1778200903 | 21.67° C | 33% | 1016.7 hPa | 0 mm | - | 231 W/m² | - |
| 1778200599 | 21.67° C | 34% | 1016.8 hPa | 0 mm | - | 252 W/m² | - |
| 1778200297 | 22.22° C | 32% | 1016.8 hPa | 0 mm | - | 260 W/m² | - |
| 1778199993 | 21.67° C | 32% | 1016.7 hPa | 0 mm | - | 260 W/m² | - |
| 1778199691 | 21.67° C | 34% | 1016.7 hPa | 0 mm | - | 284 W/m² | - |
* Rain latest hour (hover to see other rain measurements)
** Current wind speed in m/s (hover to see current wind gust speed)